Terminal Aerodrome Forecast
Issued by NWS

Home | Current Version | Previous Version | Text Only | Print | Product List | Glossary On
Versions: 1 2 3 4 5 6 7 8 9 10 11 12 13 14 15 16 17 18 19 20 21 22 23 24 25 26 27 28 29 30 31 32 33 34 35 36 37 38 39 40 41 42 43 44 45
000
FTUS45 KBOI 230038 AAA
TAFMYL
TAF AMD
KMYL 230038Z 2301/2324 19006KT 2SM -SN BR OVC025
     FM230500 29008KT P6SM VCSH BKN025 OVC040
     FM231800 VRB03KT 5SM -SN BR OVC015=

USA.gov is the U.S. government's official web portal to all federal, state and local government web resources and services.